createdAt,value
2023-05-06T00:00:56.111Z,211.89
2023-05-06T00:01:56.132Z,211.88
2023-05-06T00:02:56.244Z,211.85
2023-05-06T00:03:56.275Z,210.40
2023-05-06T00:04:56.623Z,212.11
2023-05-06T00:05:56.200Z,211.36
2023-05-06T00:06:56.232Z,211.71
2023-05-06T00:07:56.241Z,212.18
2023-05-06T00:08:56.319Z,212.57
2023-05-06T00:09:56.294Z,212.14
2023-05-06T00:10:56.374Z,211.74
2023-05-06T00:11:56.350Z,212.53
2023-05-06T00:12:56.366Z,212.28
2023-05-06T00:13:56.490Z,211.62
2023-05-06T00:14:56.426Z,212.17
2023-05-06T00:15:56.439Z,212.89
2023-05-06T00:16:56.447Z,213.53
2023-05-06T00:17:56.481Z,213.93
2023-05-06T00:18:56.486Z,213.90
2023-05-06T00:19:56.529Z,213.39
2023-05-06T00:20:56.521Z,214.12
2023-05-06T00:21:56.580Z,215.22
2023-05-06T00:22:56.594Z,214.57
2023-05-06T00:23:56.598Z,214.34
2023-05-06T00:24:56.635Z,214.85
2023-05-06T00:25:56.749Z,214.96
2023-05-06T00:26:56.764Z,215.46
2023-05-06T00:27:56.686Z,214.97
2023-05-06T00:28:56.736Z,215.00
2023-05-06T00:29:56.738Z,216.24
2023-05-06T00:30:56.784Z,215.89
2023-05-06T00:31:56.834Z,217.17
2023-05-06T00:32:56.876Z,217.83
2023-05-06T00:33:56.820Z,216.42
2023-05-06T00:34:56.896Z,216.76
2023-05-06T00:35:56.919Z,217.06
2023-05-06T00:36:56.915Z,216.44
2023-05-06T00:37:56.954Z,217.29
2023-05-06T00:38:57.003Z,217.11
2023-05-06T00:39:57.025Z,217.02
2023-05-06T00:40:57.047Z,218.25
2023-05-06T00:41:57.070Z,218.58
2023-05-06T00:42:57.095Z,219.28
2023-05-06T00:43:57.117Z,219.81
2023-05-06T00:44:57.151Z,219.23
2023-05-06T00:45:57.308Z,219.27
2023-05-06T00:46:57.190Z,219.24
2023-05-06T00:47:57.266Z,219.73
2023-05-06T00:48:57.242Z,220.80
2023-05-06T00:49:57.323Z,221.12
2023-05-06T00:50:57.308Z,220.70
2023-05-06T00:51:57.298Z,220.03
2023-05-06T00:52:57.467Z,219.85
2023-05-06T00:53:57.381Z,220.17
2023-05-06T00:54:57.392Z,220.42
2023-05-06T00:55:57.967Z,219.87
2023-05-06T00:56:57.534Z,220.98
2023-05-06T00:57:57.471Z,220.22
2023-05-06T00:58:57.565Z,220.63
2023-05-06T00:59:57.557Z,219.53
2023-05-06T01:00:57.768Z,218.83
2023-05-06T01:01:57.640Z,218.52
2023-05-06T01:02:57.721Z,218.13
2023-05-06T01:03:57.913Z,218.47
2023-05-06T01:04:57.744Z,218.85
2023-05-06T01:05:57.691Z,218.32
2023-05-06T01:06:57.714Z,218.60
2023-05-06T01:07:57.761Z,218.30
2023-05-06T01:08:57.763Z,217.97
2023-05-06T01:09:57.823Z,215.94
2023-05-06T01:10:58.561Z,215.65
2023-05-06T01:11:57.836Z,215.41
2023-05-06T01:12:57.950Z,213.80
2023-05-06T01:13:57.916Z,213.77
2023-05-06T01:14:58.070Z,213.75
2023-05-06T01:15:58.476Z,213.98
2023-05-06T01:16:58.069Z,214.15
2023-05-06T01:17:58.085Z,214.41
2023-05-06T01:18:58.065Z,213.96
2023-05-06T01:19:58.492Z,213.43
2023-05-06T01:20:58.144Z,215.53
2023-05-06T01:21:58.167Z,215.92
2023-05-06T01:22:58.211Z,216.82
2023-05-06T01:23:58.618Z,216.31
2023-05-06T01:24:58.290Z,217.69
2023-05-06T01:25:58.331Z,217.34
2023-05-06T01:26:58.386Z,217.90
2023-05-06T01:27:58.335Z,217.94
2023-05-06T01:28:58.414Z,215.93
2023-05-06T01:29:58.467Z,215.45
2023-05-06T01:30:58.575Z,214.38
2023-05-06T01:31:58.504Z,214.43
2023-05-06T01:32:58.625Z,213.27
2023-05-06T01:33:58.588Z,213.25
2023-05-06T01:34:58.748Z,213.67
2023-05-06T01:35:58.661Z,213.07
2023-05-06T01:36:58.707Z,213.94
2023-05-06T01:37:58.748Z,214.80
2023-05-06T01:38:58.788Z,214.82
2023-05-06T01:39:58.840Z,212.95
2023-05-06T01:40:58.875Z,212.99
2023-05-06T01:41:58.877Z,213.10
2023-05-06T01:42:58.919Z,213.33
2023-05-06T01:43:58.972Z,213.85
2023-05-06T01:44:59.007Z,214.51
2023-05-06T01:45:59.089Z,214.81
2023-05-06T01:46:59.119Z,215.41
2023-05-06T01:47:59.134Z,216.16
2023-05-06T01:48:59.137Z,217.11
2023-05-06T01:49:59.167Z,217.55
2023-05-06T01:50:59.219Z,218.16
2023-05-06T01:51:59.259Z,218.65
2023-05-06T01:52:59.290Z,219.10
2023-05-06T01:53:59.346Z,219.31
2023-05-06T01:54:59.396Z,218.42
2023-05-06T01:55:59.391Z,218.00
2023-05-06T01:56:59.430Z,217.40
2023-05-06T01:57:59.662Z,217.37
2023-05-06T01:58:59.844Z,216.49
2023-05-06T01:59:59.558Z,215.83
2023-05-06T02:00:59.553Z,215.10
2023-05-06T02:01:59.785Z,215.16
2023-05-06T02:02:59.830Z,214.76
2023-05-06T02:03:59.820Z,215.13
2023-05-06T02:04:59.722Z,214.27
2023-05-06T02:05:59.733Z,214.33
2023-05-06T02:06:59.810Z,215.46
2023-05-06T02:07:59.838Z,215.40
2023-05-06T02:08:59.878Z,215.67
2023-05-06T02:09:59.920Z,216.72
2023-05-06T02:10:59.948Z,216.35
2023-05-06T02:11:59.984Z,216.39
2023-05-06T02:13:00.141Z,215.68
2023-05-06T02:14:01.023Z,215.76
2023-05-06T02:15:00.036Z,215.83
2023-05-06T02:16:00.015Z,215.98
2023-05-06T02:17:00.015Z,216.14
2023-05-06T02:18:00.069Z,215.80
2023-05-06T02:19:00.064Z,215.29
2023-05-06T02:19:59.980Z,215.45
2023-05-06T02:20:59.988Z,214.62
2023-05-06T02:22:00.025Z,216.57
2023-05-06T02:22:59.989Z,215.78
2023-05-06T02:23:59.954Z,215.85
2023-05-06T02:24:59.937Z,214.84
2023-05-06T02:25:59.993Z,214.22
2023-05-06T02:27:00.152Z,213.80
2023-05-06T02:28:00.154Z,213.32
2023-05-06T02:29:00.123Z,212.24
2023-05-06T02:30:00.189Z,213.31
2023-05-06T02:31:00.252Z,212.73
2023-05-06T02:32:00.259Z,213.80
2023-05-06T02:33:00.369Z,213.20
2023-05-06T02:34:00.321Z,212.13
2023-05-06T02:35:00.469Z,213.57
2023-05-06T02:36:00.417Z,212.86
2023-05-06T02:37:00.456Z,213.82
2023-05-06T02:38:00.600Z,213.29
2023-05-06T02:39:00.538Z,214.54
2023-05-06T02:40:00.996Z,213.11
2023-05-06T02:41:00.667Z,212.71
2023-05-06T02:42:00.658Z,211.91
2023-05-06T02:43:00.734Z,212.47
2023-05-06T02:44:00.818Z,212.65
2023-05-06T02:45:00.787Z,212.81
2023-05-06T02:46:00.870Z,213.58
2023-05-06T02:47:00.928Z,212.69
2023-05-06T02:48:01.053Z,213.59
2023-05-06T02:49:01.070Z,213.39
2023-05-06T02:50:01.100Z,215.08
2023-05-06T02:51:01.158Z,215.31
2023-05-06T02:52:01.153Z,214.90
2023-05-06T02:53:01.184Z,214.27
2023-05-06T02:54:01.243Z,214.36
2023-05-06T02:55:01.297Z,212.61
2023-05-06T02:56:01.342Z,212.46
2023-05-06T02:57:01.363Z,213.09
2023-05-06T02:58:01.407Z,212.60
2023-05-06T02:59:01.492Z,212.90
2023-05-06T03:00:01.584Z,213.96
2023-05-06T03:01:01.655Z,213.89
2023-05-06T03:02:01.644Z,214.91
2023-05-06T03:03:01.763Z,215.75
2023-05-06T03:04:01.797Z,215.02
2023-05-06T03:05:01.841Z,213.88
2023-05-06T03:06:01.852Z,213.67
2023-05-06T03:07:02.000Z,213.58
2023-05-06T03:08:01.962Z,213.47
2023-05-06T03:09:02.017Z,213.14
2023-05-06T03:10:02.087Z,213.88
2023-05-06T03:11:03.024Z,213.93
2023-05-06T03:12:02.202Z,214.17
2023-05-06T03:13:02.446Z,214.13
2023-05-06T03:14:02.373Z,213.94
2023-05-06T03:15:02.365Z,214.93
2023-05-06T03:16:02.368Z,214.33
2023-05-06T03:17:02.458Z,215.40
2023-05-06T03:18:02.561Z,216.09
2023-05-06T03:19:02.559Z,215.95
2023-05-06T03:20:02.596Z,215.74
2023-05-06T03:21:02.710Z,215.11
2023-05-06T03:22:02.743Z,215.00
2023-05-06T03:23:02.834Z,213.79
2023-05-06T03:24:02.848Z,214.87
2023-05-06T03:25:02.980Z,213.13
2023-05-06T03:26:02.922Z,212.61
2023-05-06T03:27:03.001Z,212.76
2023-05-06T03:28:03.026Z,211.94
2023-05-06T03:29:03.147Z,211.46
2023-05-06T03:30:03.159Z,212.10
2023-05-06T03:31:03.213Z,212.17
2023-05-06T03:32:03.193Z,212.49
2023-05-06T03:33:03.293Z,213.74
2023-05-06T03:34:03.332Z,214.36
2023-05-06T03:35:03.429Z,214.03
2023-05-06T03:36:03.480Z,214.32
2023-05-06T03:37:03.504Z,212.91
2023-05-06T03:38:03.574Z,212.78
2023-05-06T03:39:03.656Z,212.33
2023-05-06T03:40:03.706Z,212.80
2023-05-06T03:41:03.722Z,213.32
2023-05-06T03:42:03.822Z,214.80
2023-05-06T03:43:03.857Z,214.75
2023-05-06T03:44:03.903Z,214.83
2023-05-06T03:45:03.985Z,214.59
2023-05-06T03:46:04.021Z,213.26
2023-05-06T03:47:04.067Z,214.07
2023-05-06T03:48:04.091Z,214.14
2023-05-06T03:49:04.183Z,212.43
2023-05-06T03:50:04.207Z,212.84
2023-05-06T03:51:04.266Z,213.22
2023-05-06T03:52:04.353Z,211.73
2023-05-06T03:53:04.396Z,212.18
2023-05-06T03:54:04.474Z,212.00
2023-05-06T03:55:04.581Z,212.56
2023-05-06T03:56:04.564Z,212.72
2023-05-06T03:57:04.623Z,212.51
2023-05-06T03:58:04.680Z,212.96
2023-05-06T03:59:04.742Z,213.27
2023-05-06T04:00:04.778Z,213.38
2023-05-06T04:01:04.830Z,213.59
2023-05-06T04:02:04.975Z,213.06
2023-05-06T04:03:05.040Z,212.59
2023-05-06T04:04:05.028Z,212.79
2023-05-06T04:05:05.016Z,212.84
2023-05-06T04:06:05.090Z,212.79
2023-05-06T04:07:05.124Z,211.70
2023-05-06T04:08:05.145Z,211.54
2023-05-06T04:09:05.205Z,213.11
2023-05-06T04:10:05.259Z,213.23
2023-05-06T04:11:05.325Z,213.79
2023-05-06T04:12:05.362Z,214.36
2023-05-06T04:13:05.414Z,215.24
2023-05-06T04:14:05.501Z,214.61
2023-05-06T04:15:05.602Z,214.36
2023-05-06T04:16:05.615Z,212.75
2023-05-06T04:17:05.612Z,211.54
2023-05-06T04:18:05.735Z,211.42
2023-05-06T04:19:06.438Z,211.46
2023-05-06T04:20:06.537Z,209.80
2023-05-06T04:21:05.809Z,208.83
2023-05-06T04:22:05.837Z,207.51
2023-05-06T04:23:05.882Z,207.60
2023-05-06T04:24:05.968Z,206.95
2023-05-06T04:25:05.984Z,208.22
2023-05-06T04:26:05.999Z,209.52
2023-05-06T04:27:06.123Z,206.92
2023-05-06T04:28:06.085Z,207.05
2023-05-06T04:29:06.069Z,207.30
2023-05-06T04:30:06.096Z,206.38
2023-05-06T04:31:06.102Z,208.94
2023-05-06T04:32:06.287Z,209.38
2023-05-06T04:33:06.250Z,209.54
2023-05-06T04:34:06.207Z,208.97
2023-05-06T04:35:06.208Z,209.28
2023-05-06T04:36:06.241Z,208.89
2023-05-06T04:37:06.235Z,209.08
2023-05-06T04:38:06.261Z,210.32
2023-05-06T04:39:06.272Z,209.42
2023-05-06T04:40:06.303Z,210.07
2023-05-06T04:41:06.435Z,210.47
2023-05-06T04:42:06.363Z,210.02
2023-05-06T04:43:06.425Z,209.27
2023-05-06T04:44:06.386Z,209.13
2023-05-06T04:45:06.474Z,209.77
2023-05-06T04:46:06.513Z,209.33
2023-05-06T04:47:06.463Z,210.84
2023-05-06T04:48:06.528Z,210.52
2023-05-06T04:49:06.538Z,211.69
2023-05-06T04:50:06.541Z,212.64
2023-05-06T04:51:06.535Z,213.40
2023-05-06T04:52:06.565Z,213.52
2023-05-06T04:53:06.599Z,215.10
2023-05-06T04:54:06.614Z,213.51
2023-05-06T04:55:06.675Z,213.65
2023-05-06T04:56:06.723Z,215.17
2023-05-06T04:57:06.690Z,216.07
2023-05-06T04:58:06.656Z,216.48
2023-05-06T04:59:06.893Z,216.96
2023-05-06T05:00:06.816Z,216.64
2023-05-06T05:01:06.769Z,215.71
2023-05-06T05:02:06.897Z,215.64
2023-05-06T05:03:06.861Z,216.79
2023-05-06T05:04:06.801Z,216.30
2023-05-06T05:05:06.867Z,217.22
2023-05-06T05:06:06.907Z,216.81
2023-05-06T05:07:06.839Z,217.17
2023-05-06T05:08:06.821Z,215.80
2023-05-06T05:09:06.857Z,216.13
2023-05-06T05:10:06.868Z,215.40
2023-05-06T05:11:06.891Z,217.54
2023-05-06T05:12:06.904Z,216.58
2023-05-06T05:13:07.013Z,216.73
2023-05-06T05:14:06.972Z,216.21
2023-05-06T05:15:07.275Z,215.27
2023-05-06T05:16:06.998Z,214.64
2023-05-06T05:17:07.195Z,213.94
2023-05-06T05:18:07.033Z,215.84
2023-05-06T05:19:09.091Z,215.81
2023-05-06T05:20:07.080Z,216.55
2023-05-06T05:21:07.101Z,216.34
2023-05-06T05:22:07.115Z,217.09
2023-05-06T05:23:07.132Z,214.16
2023-05-06T05:24:07.144Z,213.42
2023-05-06T05:25:08.189Z,212.08
2023-05-06T05:26:07.262Z,212.71
2023-05-06T05:27:07.291Z,213.82
2023-05-06T05:28:07.301Z,213.31
2023-05-06T05:29:08.069Z,213.98
2023-05-06T05:30:07.404Z,214.46
2023-05-06T05:31:10.254Z,212.69
2023-05-06T05:32:07.379Z,214.00
2023-05-06T05:33:07.493Z,211.42
2023-05-06T05:34:07.381Z,210.78
2023-05-06T05:35:07.728Z,209.56
2023-05-06T05:36:07.345Z,209.73
2023-05-06T05:37:07.362Z,208.83
2023-05-06T05:38:07.357Z,209.43
2023-05-06T05:39:07.372Z,208.79
2023-05-06T05:40:07.357Z,209.80
2023-05-06T05:41:07.351Z,208.72
2023-05-06T05:42:07.313Z,210.24
2023-05-06T05:43:07.356Z,208.98
2023-05-06T05:44:07.307Z,207.74
2023-05-06T05:45:07.488Z,207.37
2023-05-06T05:46:07.301Z,205.38
2023-05-06T05:47:07.348Z,205.66
2023-05-06T05:48:07.330Z,204.99
2023-05-06T05:49:07.247Z,203.47
2023-05-06T05:50:07.279Z,205.88
2023-05-06T05:51:08.095Z,206.46
2023-05-06T05:52:07.287Z,208.01
2023-05-06T05:53:07.319Z,206.95
2023-05-06T05:54:07.225Z,209.04
2023-05-06T05:55:07.760Z,209.14
2023-05-06T05:56:07.290Z,207.50
2023-05-06T05:57:08.090Z,206.61
2023-05-06T05:58:07.218Z,206.53
2023-05-06T05:59:07.214Z,206.49
2023-05-06T06:00:07.203Z,207.23
2023-05-06T06:01:07.189Z,206.95
2023-05-06T06:02:07.179Z,206.72
2023-05-06T06:03:07.272Z,207.13
2023-05-06T06:04:07.326Z,206.66
2023-05-06T06:05:07.360Z,206.20
2023-05-06T06:06:07.153Z,206.24
2023-05-06T06:07:07.137Z,206.56
2023-05-06T06:08:07.131Z,206.29
2023-05-06T06:09:07.120Z,207.04
2023-05-06T06:10:07.141Z,205.11
2023-05-06T06:11:07.129Z,205.86
2023-05-06T06:12:07.134Z,204.91
2023-05-06T06:13:07.174Z,204.49
2023-05-06T06:14:07.127Z,206.01
2023-05-06T06:15:07.110Z,205.85
2023-05-06T06:16:07.158Z,207.17
2023-05-06T06:17:07.141Z,206.67
2023-05-06T06:18:07.112Z,208.74
2023-05-06T06:19:07.242Z,206.89
2023-05-06T06:20:07.058Z,207.14
2023-05-06T06:21:07.073Z,206.44
2023-05-06T06:22:07.033Z,207.07
2023-05-06T06:23:07.088Z,208.12
2023-05-06T06:24:07.017Z,207.64
2023-05-06T06:25:07.030Z,206.98
2023-05-06T06:26:06.995Z,207.66
2023-05-06T06:27:07.038Z,205.32
2023-05-06T06:28:07.090Z,205.39
2023-05-06T06:29:07.133Z,204.58
2023-05-06T06:30:07.218Z,206.24
2023-05-06T06:31:07.256Z,204.73
2023-05-06T06:32:07.346Z,205.63
2023-05-06T06:33:07.405Z,206.79
2023-05-06T06:34:07.404Z,206.86
2023-05-06T06:35:07.664Z,207.80
2023-05-06T06:36:07.526Z,206.87
2023-05-06T06:37:08.012Z,204.82
2023-05-06T06:38:07.608Z,204.17
2023-05-06T06:39:07.705Z,205.79
2023-05-06T06:40:07.717Z,206.31
2023-05-06T06:41:07.731Z,205.99
2023-05-06T06:42:07.790Z,206.83
2023-05-06T06:43:07.824Z,206.58
2023-05-06T06:44:07.869Z,208.38
2023-05-06T06:45:08.111Z,208.34
2023-05-06T06:46:07.996Z,209.48
2023-05-06T06:47:08.006Z,210.57
2023-05-06T06:48:08.090Z,210.84
2023-05-06T06:49:08.137Z,210.81
2023-05-06T06:50:08.161Z,208.99
2023-05-06T06:51:08.246Z,209.48
2023-05-06T06:52:08.280Z,210.32
2023-05-06T06:53:08.316Z,209.96
2023-05-06T06:54:08.355Z,210.13
2023-05-06T06:55:08.695Z,210.28
2023-05-06T06:56:08.493Z,210.51
2023-05-06T06:57:08.561Z,210.64
2023-05-06T06:58:08.591Z,210.86
2023-05-06T06:59:08.627Z,210.78
2023-05-06T07:00:08.692Z,211.06
2023-05-06T07:01:08.756Z,210.30
2023-05-06T07:02:08.759Z,209.61
2023-05-06T07:03:08.872Z,209.51
2023-05-06T07:04:08.888Z,209.83
2023-05-06T07:05:09.161Z,208.36
2023-05-06T07:06:09.032Z,208.72
2023-05-06T07:07:09.063Z,211.08
2023-05-06T07:08:09.074Z,210.65
2023-05-06T07:09:09.225Z,210.74
2023-05-06T07:10:09.184Z,212.45
2023-05-06T07:11:09.227Z,212.38
2023-05-06T07:12:09.319Z,211.85
2023-05-06T07:13:09.387Z,210.40
2023-05-06T07:14:09.502Z,210.57
2023-05-06T07:15:09.634Z,208.74
2023-05-06T07:16:09.471Z,207.46
2023-05-06T07:17:09.573Z,200.63
2023-05-06T07:18:09.617Z,199.73
2023-05-06T07:19:09.677Z,193.20
2023-05-06T07:20:09.709Z,190.28
2023-05-06T07:21:09.724Z,190.94
2023-05-06T07:22:09.801Z,191.85
2023-05-06T07:23:10.050Z,192.34
2023-05-06T07:24:09.896Z,191.91
2023-05-06T07:25:10.136Z,193.12
2023-05-06T07:26:10.031Z,194.15
2023-05-06T07:27:10.093Z,190.76
2023-05-06T07:28:10.108Z,191.40
2023-05-06T07:29:10.202Z,192.25
2023-05-06T07:30:10.310Z,194.35
2023-05-06T07:31:10.324Z,197.16
2023-05-06T07:32:10.356Z,194.97
2023-05-06T07:33:10.400Z,194.67
2023-05-06T07:34:10.438Z,193.53
2023-05-06T07:35:10.723Z,195.04
2023-05-06T07:36:10.588Z,195.71
2023-05-06T07:37:10.637Z,196.50
2023-05-06T07:38:10.686Z,195.20
2023-05-06T07:39:10.826Z,195.32
2023-05-06T07:40:10.809Z,195.24
2023-05-06T07:41:10.843Z,193.16
2023-05-06T07:42:10.873Z,191.88
2023-05-06T07:43:10.927Z,191.27
2023-05-06T07:44:10.993Z,191.40
2023-05-06T07:45:11.398Z,192.92
2023-05-06T07:46:11.131Z,194.56
2023-05-06T07:47:11.255Z,194.36
2023-05-06T07:48:11.280Z,196.39
2023-05-06T07:49:11.255Z,196.24
2023-05-06T07:50:11.300Z,195.27
2023-05-06T07:51:11.328Z,194.69
2023-05-06T07:52:11.398Z,195.48
2023-05-06T07:53:11.427Z,195.62
2023-05-06T07:54:11.488Z,195.96
2023-05-06T07:55:11.884Z,197.60
2023-05-06T07:56:11.566Z,198.00
2023-05-06T07:57:11.592Z,196.55
2023-05-06T07:58:11.680Z,196.42
2023-05-06T07:59:11.692Z,195.72
2023-05-06T08:00:11.748Z,197.80
2023-05-06T08:01:11.789Z,197.99
2023-05-06T08:02:11.896Z,198.28
2023-05-06T08:03:12.005Z,197.53
2023-05-06T08:04:12.003Z,196.12
2023-05-06T08:05:12.103Z,196.52
2023-05-06T08:06:11.956Z,197.22
2023-05-06T08:07:12.010Z,196.87
2023-05-06T08:08:12.046Z,196.60
2023-05-06T08:09:16.927Z,196.06
2023-05-06T08:10:13.656Z,196.21
2023-05-06T08:11:12.208Z,196.50
2023-05-06T08:12:12.211Z,196.83
2023-05-06T08:13:12.273Z,197.74
2023-05-06T08:14:12.261Z,197.60
2023-05-06T08:15:12.449Z,197.64
2023-05-06T08:16:12.348Z,196.95
2023-05-06T08:17:12.331Z,193.99
2023-05-06T08:18:21.576Z,190.26
2023-05-06T08:19:13.398Z,190.35
2023-05-06T08:20:12.369Z,190.30
2023-05-06T08:21:12.345Z,190.63
2023-05-06T08:22:12.355Z,191.85
2023-05-06T08:23:12.381Z,191.96
2023-05-06T08:24:12.342Z,192.63
2023-05-06T08:25:12.577Z,194.08
2023-05-06T08:26:12.314Z,192.97
2023-05-06T08:27:12.382Z,193.98
2023-05-06T08:28:12.328Z,190.77
2023-05-06T08:29:12.301Z,188.49
2023-05-06T08:30:12.317Z,183.35
2023-05-06T08:31:12.322Z,178.76
2023-05-06T08:32:12.364Z,180.73
2023-05-06T08:33:12.358Z,181.76
2023-05-06T08:34:12.391Z,180.32
2023-05-06T08:35:12.661Z,182.10
2023-05-06T08:36:12.500Z,173.95
2023-05-06T08:37:12.529Z,175.49
2023-05-06T08:38:12.557Z,175.30
2023-05-06T08:39:12.648Z,176.69
2023-05-06T08:40:12.726Z,178.80
2023-05-06T08:41:12.704Z,180.50
2023-05-06T08:42:12.764Z,179.73
2023-05-06T08:43:12.866Z,177.73
2023-05-06T08:44:12.886Z,176.78
2023-05-06T08:45:12.920Z,174.28
2023-05-06T08:46:12.953Z,173.34
2023-05-06T08:47:12.985Z,165.40
2023-05-06T08:48:13.047Z,169.23
2023-05-06T08:49:13.084Z,171.40
2023-05-06T08:50:13.130Z,168.83
2023-05-06T08:51:13.167Z,161.49
2023-05-06T08:52:13.282Z,161.10
2023-05-06T08:53:13.332Z,159.89
2023-05-06T08:54:13.276Z,161.78
2023-05-06T08:55:13.582Z,165.97
2023-05-06T08:56:13.379Z,162.86
2023-05-06T08:57:13.413Z,154.66
2023-05-06T08:58:13.473Z,152.40
2023-05-06T08:59:13.706Z,147.16
2023-05-06T09:00:13.625Z,145.70
2023-05-06T09:01:13.665Z,151.35
2023-05-06T09:02:13.717Z,152.61
2023-05-06T09:03:13.832Z,149.83
2023-05-06T09:04:13.744Z,150.02
2023-05-06T09:05:13.956Z,157.02
2023-05-06T09:06:13.863Z,146.25
2023-05-06T09:07:13.889Z,150.42
2023-05-06T09:08:14.039Z,144.14
2023-05-06T09:09:14.018Z,145.69
2023-05-06T09:10:14.062Z,140.63
2023-05-06T09:11:14.101Z,141.02
2023-05-06T09:12:14.193Z,144.11
2023-05-06T09:13:14.317Z,146.27
2023-05-06T09:14:14.248Z,152.65
2023-05-06T09:15:14.299Z,154.23
2023-05-06T09:16:14.375Z,156.11
2023-05-06T09:17:14.413Z,147.32
2023-05-06T09:18:14.461Z,139.68
2023-05-06T09:19:14.520Z,146.96
2023-05-06T09:20:14.584Z,153.27
2023-05-06T09:21:14.597Z,158.77
2023-05-06T09:22:14.676Z,160.00
2023-05-06T09:23:14.716Z,161.95
2023-05-06T09:24:14.785Z,163.12
2023-05-06T09:25:14.773Z,155.49
2023-05-06T09:26:15.722Z,158.74
2023-05-06T09:27:15.336Z,160.80
2023-05-06T09:28:14.914Z,163.05
2023-05-06T09:29:15.014Z,167.56
2023-05-06T09:30:15.041Z,166.15
2023-05-06T09:31:15.147Z,163.63
2023-05-06T09:32:15.119Z,166.52
2023-05-06T09:33:15.270Z,164.83
2023-05-06T09:34:15.235Z,165.78
2023-05-06T09:35:15.261Z,166.20
2023-05-06T09:36:15.304Z,166.28
2023-05-06T09:37:15.363Z,165.52
2023-05-06T09:38:15.421Z,167.92
2023-05-06T09:39:15.489Z,165.44
2023-05-06T09:40:15.556Z,166.28
2023-05-06T09:41:15.588Z,169.69
2023-05-06T09:42:15.638Z,173.27
2023-05-06T09:43:15.702Z,176.50
2023-05-06T09:44:15.700Z,174.82
2023-05-06T09:45:15.791Z,169.73
2023-05-06T09:46:15.820Z,173.86
2023-05-06T09:47:15.852Z,175.81
2023-05-06T09:48:16.694Z,176.04
2023-05-06T09:49:15.964Z,177.46
2023-05-06T09:50:16.094Z,180.80
2023-05-06T09:51:16.060Z,182.43
2023-05-06T09:52:16.088Z,182.81
2023-05-06T09:53:16.131Z,185.39
2023-05-06T09:54:16.185Z,187.14
2023-05-06T09:55:16.214Z,191.60
2023-05-06T09:56:16.257Z,189.54
2023-05-06T09:57:16.292Z,191.39
2023-05-06T09:58:16.363Z,192.08
2023-05-06T09:59:16.412Z,193.63
2023-05-06T10:00:16.463Z,195.94
2023-05-06T10:01:25.195Z,194.88
2023-05-06T10:02:17.520Z,194.98
2023-05-06T10:03:16.678Z,195.36
2023-05-06T10:04:16.643Z,196.28
2023-05-06T10:05:16.955Z,195.88
2023-05-06T10:06:16.470Z,199.97
2023-05-06T10:07:16.393Z,199.42
2023-05-06T10:08:16.388Z,198.35
2023-05-06T10:09:16.381Z,202.46
2023-05-06T10:10:16.398Z,204.50
2023-05-06T10:11:16.373Z,203.75
2023-05-06T10:12:16.391Z,202.81
2023-05-06T10:13:16.430Z,205.27
2023-05-06T10:14:16.378Z,204.12
2023-05-06T10:15:16.355Z,203.28
2023-05-06T10:16:16.477Z,205.06
2023-05-06T10:17:16.330Z,207.36
2023-05-06T10:18:16.384Z,207.26
2023-05-06T10:19:16.455Z,207.00
2023-05-06T10:20:16.471Z,208.34
2023-05-06T10:21:16.428Z,209.05
2023-05-06T10:22:16.478Z,209.90
2023-05-06T10:23:16.540Z,211.56
2023-05-06T10:24:16.537Z,210.48
2023-05-06T10:25:16.576Z,211.54
2023-05-06T10:26:16.601Z,213.59
2023-05-06T10:27:16.612Z,213.75
2023-05-06T10:28:20.420Z,211.20
2023-05-06T10:29:17.630Z,211.35
2023-05-06T10:30:16.661Z,211.55
2023-05-06T10:31:16.635Z,211.85
2023-05-06T10:32:16.596Z,212.92
2023-05-06T10:33:16.610Z,212.49
2023-05-06T10:34:16.581Z,216.06
2023-05-06T10:35:16.704Z,214.78
2023-05-06T10:36:17.499Z,214.95
2023-05-06T10:37:16.563Z,217.03
2023-05-06T10:38:16.575Z,217.18
2023-05-06T10:39:16.547Z,217.17
2023-05-06T10:40:16.603Z,216.80
2023-05-06T10:41:16.553Z,220.47
2023-05-06T10:42:16.535Z,220.84
2023-05-06T10:43:16.505Z,219.29
2023-05-06T10:44:16.513Z,221.04
2023-05-06T10:45:16.501Z,219.60
2023-05-06T10:46:16.596Z,219.37
2023-05-06T10:47:16.478Z,219.34
2023-05-06T10:48:16.509Z,221.90
2023-05-06T10:49:16.478Z,222.96
2023-05-06T10:50:16.525Z,221.73
2023-05-06T10:51:16.656Z,220.63
2023-05-06T10:52:16.511Z,219.75
2023-05-06T10:53:16.508Z,220.15
2023-05-06T10:54:16.571Z,223.45
2023-05-06T10:55:16.531Z,224.27
2023-05-06T10:56:16.563Z,225.56
2023-05-06T10:57:16.591Z,227.19
2023-05-06T10:58:16.622Z,226.95
2023-05-06T10:59:16.627Z,227.98
2023-05-06T11:00:16.639Z,228.01
2023-05-06T11:01:16.655Z,225.90
2023-05-06T11:02:16.687Z,225.94
2023-05-06T11:03:16.778Z,224.58
2023-05-06T11:04:16.678Z,221.84
2023-05-06T11:05:16.728Z,220.99
2023-05-06T11:06:16.701Z,220.84
2023-05-06T11:07:16.897Z,221.41
2023-05-06T11:08:16.738Z,220.97
2023-05-06T11:09:16.764Z,223.42
2023-05-06T11:10:16.757Z,224.98
2023-05-06T11:11:17.192Z,221.43
2023-05-06T11:12:16.785Z,223.88
2023-05-06T11:13:16.852Z,224.99
2023-05-06T11:14:16.852Z,226.43
2023-05-06T11:15:16.841Z,226.02
2023-05-06T11:16:16.836Z,227.07
2023-05-06T11:17:16.829Z,227.41
2023-05-06T11:18:16.867Z,228.91
2023-05-06T11:19:16.853Z,231.03
2023-05-06T11:20:16.868Z,232.20
2023-05-06T11:21:16.893Z,231.80
2023-05-06T11:22:16.928Z,232.86
2023-05-06T11:23:16.999Z,232.35
2023-05-06T11:24:16.923Z,234.44
2023-05-06T11:25:16.969Z,234.24
2023-05-06T11:26:16.952Z,234.50
2023-05-06T11:27:16.995Z,236.08
2023-05-06T11:28:16.981Z,235.32
2023-05-06T11:29:16.982Z,236.12
2023-05-06T11:30:16.966Z,235.02
2023-05-06T11:31:17.244Z,234.89
2023-05-06T11:32:17.024Z,233.18
2023-05-06T11:33:17.046Z,232.01
2023-05-06T11:34:17.025Z,231.67
2023-05-06T11:35:17.687Z,231.63
2023-05-06T11:36:17.053Z,228.97
2023-05-06T11:37:17.698Z,228.17
2023-05-06T11:38:17.031Z,228.55
2023-05-06T11:39:17.264Z,226.50
2023-05-06T11:40:17.123Z,226.82
2023-05-06T11:41:17.213Z,225.30
2023-05-06T11:42:17.049Z,223.18
2023-05-06T11:43:17.108Z,221.11
2023-05-06T11:44:17.190Z,218.97
2023-05-06T11:45:17.103Z,218.08
2023-05-06T11:46:17.182Z,217.37
2023-05-06T11:47:17.150Z,216.56
2023-05-06T11:48:17.158Z,217.47
2023-05-06T11:49:17.339Z,217.31
2023-05-06T11:50:17.178Z,217.69
2023-05-06T11:51:17.222Z,218.38
2023-05-06T11:52:18.197Z,221.05
2023-05-06T11:53:17.283Z,221.16
2023-05-06T11:54:17.324Z,224.20
2023-05-06T11:55:17.406Z,224.77
2023-05-06T11:56:17.711Z,226.40
2023-05-06T11:57:17.437Z,227.00
2023-05-06T11:58:17.436Z,226.49
2023-05-06T11:59:17.530Z,226.86
2023-05-06T12:00:17.482Z,226.38
2023-05-06T12:01:17.530Z,228.62
2023-05-06T12:02:17.620Z,228.65
2023-05-06T12:03:17.645Z,228.35
2023-05-06T12:04:17.666Z,229.36
2023-05-06T12:05:17.579Z,232.27
2023-05-06T12:06:17.799Z,230.36
2023-05-06T12:07:17.694Z,232.69
2023-05-06T12:08:26.535Z,231.37
2023-05-06T12:09:18.680Z,231.53
2023-05-06T12:10:17.656Z,231.68
2023-05-06T12:11:17.654Z,231.59
2023-05-06T12:12:17.685Z,232.20
2023-05-06T12:13:17.709Z,232.61
2023-05-06T12:14:17.643Z,230.31
2023-05-06T12:15:17.657Z,227.68
2023-05-06T12:16:17.684Z,225.10
2023-05-06T12:17:17.648Z,222.09
2023-05-06T12:18:17.656Z,222.40
2023-05-06T12:19:17.667Z,223.82
2023-05-06T12:20:17.743Z,223.21
2023-05-06T12:21:17.804Z,223.56
2023-05-06T12:22:17.864Z,222.63
2023-05-06T12:23:17.915Z,224.09
2023-05-06T12:24:18.017Z,225.90
2023-05-06T12:25:18.043Z,227.98
2023-05-06T12:26:18.062Z,226.05
2023-05-06T12:27:18.181Z,226.18
2023-05-06T12:28:18.158Z,224.23
2023-05-06T12:29:18.241Z,224.45